메인 페이지
METAR-TAF:

METAR-TAF

공항 :

Kaneohe, 하와이, 미국

위도: 21-27-14N, 경도: 157-45-56W, 고도: 5m

현재 날씨관측

예보는 26분 전, 15:57시(UTC)에 발표되었습니다.
9kt, 순간 최대 풍속 20kt
온도 24°C
습도 61%
기압 1020 hPa
시정: 11.3km
고도 2900ft 상공 구름 조금

METAR: PHNG 021557Z 08009G20KT 7SM FEW029 24/16 A3011 RMK AO2 SLP190 T02440156 $

시각: 06:23 (16:23 UTC)

예보

예보 대상 시간: 01일 21시부터 02일 21시까지 (UTC)
동북동10kt, 순간 최대 풍속 20kt
시정 10km 이상
고도 3000ft 상공 구름 보통
고도 4000ft 상공 구름 보통
고도 5500ft 상공 구름 많음
일시적
01일 21시부터 02일 03시까지 (UTC)
14kt
고도 2500ft 상공 구름 보통
고도 2800ft 상공 구름 많음
고도 5000ft 상공 구름 많음
02일 1500시부터 (UTC)
10kt, 순간 최대 풍속 22kt
시정 10km 이상
고도 3000ft 상공 구름 보통
고도 4500ft 상공 구름 보통

TAF: PHNG 0121/0221 07010G20KT 9999 SCT030 SCT040 BKN055 QNH3007INS TEMPO 0121/0203 08014KT SCT025 BKN028 BKN050 FM021500 09010G22KT 9999 SCT030 SCT045 QNH3014INS T27/0122Z T23/0112Z

4,000개 이상의 공항 관측 자료 및 예보 (METAR 및 TAF 보고).

지도상에서 검색 가능한 기상관측소가 노란 점과 빨간 점으로 표시되어 있습니다.

기상관측소 명을 보려면 표시 위로 마우스를 이동하세요.

날씨 관측과 예보를 보려면 클릭하세요.

지도 변경 : 확대하려면 엑스 표시가 있는 녹색 버튼, 축소하려면 빼기 표시가 있는 녹색 버튼, 다음 페이지의 지도를 보려면 녹색 화살표를 클릭하세요.


METAR-TAF: